KITH

Ithaca Tompkins Regional Airport

Ithaca, New York, USA
METAR KITH 201856Z 22007KT 10SM -RA BKN055 10/07 A2963 RMK AO2 RAE03B52 SLP033 P0000 T01000067
Observed Flight Rules
Oct-20 @ 18:56 UTC (23 minutes ago) Visual Flight Rules
Wind Visibility Clouds Conditions
220° at 7 knots 10 miles
  • Broken at 5,500' AGL
  • Light Rain
Temperatures Readings Precipitation
Current 10°C / 50°F
Dewpoint 7°C / 45°F
Humidity 82%
Altimeter 29.63" Hg
Pressure 1003.3 hPa
Elevation 335
Current Rain 0.005
METAR KITH 201856Z 22007KT 10SM -RA BKN055 10/07 A2963 RMK AO2 RAE03B52 SLP033 P0000 T01000067
Observed Flight Rules
Oct-20 @ 18:56 UTC
(23 minutes ago)
VFR
Wind Visibility
220° at 7 knots 10 miles
Clouds
  • Broken at 5,500' AGL
Conditions
  • Light Rain
Temperature Dewpoint
10°C / 50°F 7°C / 45°F
Humidity Altimeter Pressure
82% 29.63" Hg 1003.3 hPa
Current Rain
0.005